sensor_id;sensor_type;location;lat;lon;timestamp;P1;durP1;ratioP1;P2;durP2;ratioP2
9370;SDS011;4725;48.384;8.984;2023-08-06T00:00:42;6.23;;;3.20;;
9370;SDS011;4725;48.384;8.984;2023-08-06T00:03:09;2.67;;;2.40;;
9370;SDS011;4725;48.384;8.984;2023-08-06T00:05:36;3.30;;;2.47;;
9370;SDS011;4725;48.384;8.984;2023-08-06T00:08:02;5.47;;;2.37;;
9370;SDS011;4725;48.384;8.984;2023-08-06T00:10:31;2.00;;;1.80;;
9370;SDS011;4725;48.384;8.984;2023-08-06T00:12:58;3.93;;;2.30;;
9370;SDS011;4725;48.384;8.984;2023-08-06T00:15:25;2.80;;;2.10;;
9370;SDS011;4725;48.384;8.984;2023-08-06T00:17:52;1.80;;;1.70;;
9370;SDS011;4725;48.384;8.984;2023-08-06T00:20:19;2.67;;;1.80;;
9370;SDS011;4725;48.384;8.984;2023-08-06T00:22:46;3.67;;;1.63;;
9370;SDS011;4725;48.384;8.984;2023-08-06T00:25:13;2.77;;;2.30;;
9370;SDS011;4725;48.384;8.984;2023-08-06T00:27:41;1.93;;;1.70;;
9370;SDS011;4725;48.384;8.984;2023-08-06T00:30:08;1.87;;;1.73;;
9370;SDS011;4725;48.384;8.984;2023-08-06T00:32:36;2.60;;;1.80;;
9370;SDS011;4725;48.384;8.984;2023-08-06T00:35:03;3.70;;;1.70;;
9370;SDS011;4725;48.384;8.984;2023-08-06T00:37:32;6.47;;;2.10;;
9370;SDS011;4725;48.384;8.984;2023-08-06T00:39:59;9.03;;;1.93;;
9370;SDS011;4725;48.384;8.984;2023-08-06T00:42:26;2.63;;;1.87;;
9370;SDS011;4725;48.384;8.984;2023-08-06T00:44:54;4.40;;;2.23;;
9370;SDS011;4725;48.384;8.984;2023-08-06T00:47:21;2.50;;;1.83;;
9370;SDS011;4725;48.384;8.984;2023-08-06T00:49:48;2.83;;;2.23;;
9370;SDS011;4725;48.384;8.984;2023-08-06T00:52:15;3.60;;;2.00;;
9370;SDS011;4725;48.384;8.984;2023-08-06T00:54:42;4.80;;;2.10;;
9370;SDS011;4725;48.384;8.984;2023-08-06T00:57:09;2.90;;;2.07;;
9370;SDS011;4725;48.384;8.984;2023-08-06T00:59:36;7.17;;;2.30;;
9370;SDS011;4725;48.384;8.984;2023-08-06T01:02:05;2.60;;;1.90;;
9370;SDS011;4725;48.384;8.984;2023-08-06T01:04:32;2.80;;;2.00;;
9370;SDS011;4725;48.384;8.984;2023-08-06T01:07:02;4.10;;;2.77;;
9370;SDS011;4725;48.384;8.984;2023-08-06T01:09:39;5.70;;;2.83;;
9370;SDS011;4725;48.384;8.984;2023-08-06T01:12:18;2.83;;;2.13;;
9370;SDS011;4725;48.384;8.984;2023-08-06T01:15:01;3.10;;;2.10;;
9370;SDS011;4725;48.384;8.984;2023-08-06T01:17:35;6.37;;;2.47;;
9370;SDS011;4725;48.384;8.984;2023-08-06T01:20:03;3.50;;;2.70;;
9370;SDS011;4725;48.384;8.984;2023-08-06T01:22:32;2.97;;;2.50;;
9370;SDS011;4725;48.384;8.984;2023-08-06T01:24:59;3.13;;;2.37;;
9370;SDS011;4725;48.384;8.984;2023-08-06T01:27:26;4.70;;;2.10;;
9370;SDS011;4725;48.384;8.984;2023-08-06T01:30:01;4.33;;;2.50;;
9370;SDS011;4725;48.384;8.984;2023-08-06T01:32:30;7.73;;;2.73;;
9370;SDS011;4725;48.384;8.984;2023-08-06T01:35:00;3.33;;;2.27;;
9370;SDS011;4725;48.384;8.984;2023-08-06T01:37:29;6.90;;;2.30;;
9370;SDS011;4725;48.384;8.984;2023-08-06T01:39:58;2.30;;;2.10;;
9370;SDS011;4725;48.384;8.984;2023-08-06T01:42:25;3.63;;;2.10;;
9370;SDS011;4725;48.384;8.984;2023-08-06T01:44:52;2.23;;;2.03;;
9370;SDS011;4725;48.384;8.984;2023-08-06T01:47:19;5.07;;;2.17;;
9370;SDS011;4725;48.384;8.984;2023-08-06T01:49:46;3.83;;;2.00;;
9370;SDS011;4725;48.384;8.984;2023-08-06T01:52:13;2.93;;;1.87;;
9370;SDS011;4725;48.384;8.984;2023-08-06T01:54:41;4.93;;;1.80;;
9370;SDS011;4725;48.384;8.984;2023-08-06T01:57:08;5.40;;;2.43;;
9370;SDS011;4725;48.384;8.984;2023-08-06T01:59:34;2.67;;;2.07;;
9370;SDS011;4725;48.384;8.984;2023-08-06T02:02:01;4.37;;;2.37;;
9370;SDS011;4725;48.384;8.984;2023-08-06T02:04:28;3.53;;;2.23;;
9370;SDS011;4725;48.384;8.984;2023-08-06T02:06:55;3.50;;;2.00;;
9370;SDS011;4725;48.384;8.984;2023-08-06T02:09:22;1.53;;;1.23;;
9370;SDS011;4725;48.384;8.984;2023-08-06T02:11:51;2.40;;;1.73;;
9370;SDS011;4725;48.384;8.984;2023-08-06T02:14:18;1.70;;;1.33;;
9370;SDS011;4725;48.384;8.984;2023-08-06T02:16:45;2.57;;;1.73;;
9370;SDS011;4725;48.384;8.984;2023-08-06T02:19:12;7.30;;;1.60;;
9370;SDS011;4725;48.384;8.984;2023-08-06T02:21:39;2.23;;;1.63;;
9370;SDS011;4725;48.384;8.984;2023-08-06T02:24:06;4.00;;;1.97;;
9370;SDS011;4725;48.384;8.984;2023-08-06T02:26:33;2.47;;;1.60;;
9370;SDS011;4725;48.384;8.984;2023-08-06T02:29:01;1.97;;;1.63;;
9370;SDS011;4725;48.384;8.984;2023-08-06T02:31:28;2.03;;;1.67;;
9370;SDS011;4725;48.384;8.984;2023-08-06T02:33:54;2.80;;;1.60;;
9370;SDS011;4725;48.384;8.984;2023-08-06T02:36:23;3.10;;;1.30;;
9370;SDS011;4725;48.384;8.984;2023-08-06T02:38:54;1.50;;;1.37;;
9370;SDS011;4725;48.384;8.984;2023-08-06T02:41:21;4.10;;;1.93;;
9370;SDS011;4725;48.384;8.984;2023-08-06T02:43:47;3.27;;;1.20;;
9370;SDS011;4725;48.384;8.984;2023-08-06T02:46:16;2.60;;;1.57;;
9370;SDS011;4725;48.384;8.984;2023-08-06T02:48:42;2.13;;;1.63;;
9370;SDS011;4725;48.384;8.984;2023-08-06T02:51:09;2.07;;;1.60;;
9370;SDS011;4725;48.384;8.984;2023-08-06T02:53:36;2.03;;;1.40;;
9370;SDS011;4725;48.384;8.984;2023-08-06T02:56:03;1.93;;;1.50;;
9370;SDS011;4725;48.384;8.984;2023-08-06T02:58:30;4.73;;;1.37;;
9370;SDS011;4725;48.384;8.984;2023-08-06T03:01:00;2.20;;;1.83;;
9370;SDS011;4725;48.384;8.984;2023-08-06T03:03:29;2.10;;;1.67;;
9370;SDS011;4725;48.384;8.984;2023-08-06T03:05:56;3.23;;;1.50;;
9370;SDS011;4725;48.384;8.984;2023-08-06T03:08:24;3.33;;;1.60;;
9370;SDS011;4725;48.384;8.984;2023-08-06T03:10:51;2.30;;;1.53;;
9370;SDS011;4725;48.384;8.984;2023-08-06T03:13:19;4.70;;;1.50;;
9370;SDS011;4725;48.384;8.984;2023-08-06T03:15:52;1.50;;;1.40;;
9370;SDS011;4725;48.384;8.984;2023-08-06T03:18:20;3.03;;;1.47;;
9370;SDS011;4725;48.384;8.984;2023-08-06T03:20:48;2.00;;;1.30;;
9370;SDS011;4725;48.384;8.984;2023-08-06T03:23:15;2.77;;;1.60;;
9370;SDS011;4725;48.384;8.984;2023-08-06T03:25:42;5.30;;;1.53;;
9370;SDS011;4725;48.384;8.984;2023-08-06T03:28:09;1.90;;;1.23;;
9370;SDS011;4725;48.384;8.984;2023-08-06T03:30:36;2.20;;;1.60;;
9370;SDS011;4725;48.384;8.984;2023-08-06T03:33:03;4.13;;;1.53;;
9370;SDS011;4725;48.384;8.984;2023-08-06T03:35:30;1.70;;;1.47;;
9370;SDS011;4725;48.384;8.984;2023-08-06T03:37:59;1.80;;;1.40;;
9370;SDS011;4725;48.384;8.984;2023-08-06T03:40:26;4.70;;;1.40;;
9370;SDS011;4725;48.384;8.984;2023-08-06T03:42:53;5.13;;;1.80;;
9370;SDS011;4725;48.384;8.984;2023-08-06T03:45:20;3.67;;;1.70;;
9370;SDS011;4725;48.384;8.984;2023-08-06T03:47:47;1.90;;;1.53;;
9370;SDS011;4725;48.384;8.984;2023-08-06T03:50:14;5.10;;;1.80;;
9370;SDS011;4725;48.384;8.984;2023-08-06T03:52:41;3.17;;;1.80;;
9370;SDS011;4725;48.384;8.984;2023-08-06T03:55:09;5.37;;;1.80;;
9370;SDS011;4725;48.384;8.984;2023-08-06T03:57:36;3.87;;;1.43;;
9370;SDS011;4725;48.384;8.984;2023-08-06T04:00:03;2.70;;;1.73;;
9370;SDS011;4725;48.384;8.984;2023-08-06T04:02:31;2.93;;;1.60;;
9370;SDS011;4725;48.384;8.984;2023-08-06T04:04:58;4.23;;;1.93;;
9370;SDS011;4725;48.384;8.984;2023-08-06T04:07:25;4.70;;;1.70;;
9370;SDS011;4725;48.384;8.984;2023-08-06T04:09:53;3.60;;;1.73;;
9370;SDS011;4725;48.384;8.984;2023-08-06T04:12:22;2.90;;;1.63;;
9370;SDS011;4725;48.384;8.984;2023-08-06T04:14:49;2.33;;;1.97;;
9370;SDS011;4725;48.384;8.984;2023-08-06T04:17:17;3.87;;;2.10;;
9370;SDS011;4725;48.384;8.984;2023-08-06T04:19:46;4.60;;;2.07;;
9370;SDS011;4725;48.384;8.984;2023-08-06T04:22:13;3.03;;;2.03;;
9370;SDS011;4725;48.384;8.984;2023-08-06T04:24:41;3.33;;;1.30;;
9370;SDS011;4725;48.384;8.984;2023-08-06T04:27:08;3.40;;;1.50;;
9370;SDS011;4725;48.384;8.984;2023-08-06T04:29:37;3.80;;;1.50;;
9370;SDS011;4725;48.384;8.984;2023-08-06T04:32:05;5.13;;;1.67;;
9370;SDS011;4725;48.384;8.984;2023-08-06T04:34:33;2.07;;;1.60;;
9370;SDS011;4725;48.384;8.984;2023-08-06T04:37:00;2.73;;;1.40;;
9370;SDS011;4725;48.384;8.984;2023-08-06T04:39:27;4.73;;;1.50;;
9370;SDS011;4725;48.384;8.984;2023-08-06T04:41:54;2.50;;;1.70;;
9370;SDS011;4725;48.384;8.984;2023-08-06T04:44:22;2.63;;;1.70;;
9370;SDS011;4725;48.384;8.984;2023-08-06T04:46:50;2.10;;;1.50;;
9370;SDS011;4725;48.384;8.984;2023-08-06T04:49:18;2.53;;;1.63;;
9370;SDS011;4725;48.384;8.984;2023-08-06T04:51:45;2.27;;;1.60;;
9370;SDS011;4725;48.384;8.984;2023-08-06T04:54:12;4.30;;;1.90;;
9370;SDS011;4725;48.384;8.984;2023-08-06T04:56:39;4.87;;;1.60;;
9370;SDS011;4725;48.384;8.984;2023-08-06T04:59:06;2.20;;;1.50;;
9370;SDS011;4725;48.384;8.984;2023-08-06T05:01:33;5.30;;;1.50;;
9370;SDS011;4725;48.384;8.984;2023-08-06T05:04:01;2.13;;;1.33;;
9370;SDS011;4725;48.384;8.984;2023-08-06T05:06:28;2.03;;;1.30;;
9370;SDS011;4725;48.384;8.984;2023-08-06T05:08:55;3.13;;;1.43;;
9370;SDS011;4725;48.384;8.984;2023-08-06T05:11:23;2.00;;;1.30;;
9370;SDS011;4725;48.384;8.984;2023-08-06T05:13:51;2.17;;;1.20;;
9370;SDS011;4725;48.384;8.984;2023-08-06T05:16:18;3.47;;;1.13;;
9370;SDS011;4725;48.384;8.984;2023-08-06T05:18:45;1.07;;;0.90;;
9370;SDS011;4725;48.384;8.984;2023-08-06T05:21:13;5.73;;;1.30;;
9370;SDS011;4725;48.384;8.984;2023-08-06T05:23:41;1.27;;;1.00;;
9370;SDS011;4725;48.384;8.984;2023-08-06T05:26:08;2.27;;;0.90;;
9370;SDS011;4725;48.384;8.984;2023-08-06T05:28:35;0.97;;;0.70;;
9370;SDS011;4725;48.384;8.984;2023-08-06T05:31:05;5.60;;;1.40;;
9370;SDS011;4725;48.384;8.984;2023-08-06T05:33:32;1.50;;;1.10;;
9370;SDS011;4725;48.384;8.984;2023-08-06T05:35:59;2.27;;;0.87;;
9370;SDS011;4725;48.384;8.984;2023-08-06T05:38:27;1.70;;;0.90;;
9370;SDS011;4725;48.384;8.984;2023-08-06T05:40:54;1.50;;;0.70;;
9370;SDS011;4725;48.384;8.984;2023-08-06T05:43:21;1.10;;;0.80;;
9370;SDS011;4725;48.384;8.984;2023-08-06T05:45:49;7.20;;;0.80;;
9370;SDS011;4725;48.384;8.984;2023-08-06T05:48:16;2.07;;;0.70;;
9370;SDS011;4725;48.384;8.984;2023-08-06T05:50:43;2.77;;;0.80;;
9370;SDS011;4725;48.384;8.984;2023-08-06T05:53:10;1.13;;;0.60;;
9370;SDS011;4725;48.384;8.984;2023-08-06T05:55:38;2.50;;;0.60;;
9370;SDS011;4725;48.384;8.984;2023-08-06T05:58:05;1.13;;;0.70;;
9370;SDS011;4725;48.384;8.984;2023-08-06T06:00:32;1.43;;;0.80;;
9370;SDS011;4725;48.384;8.984;2023-08-06T06:03:00;2.03;;;0.90;;
9370;SDS011;4725;48.384;8.984;2023-08-06T06:05:27;1.43;;;0.70;;
9370;SDS011;4725;48.384;8.984;2023-08-06T06:07:54;1.37;;;0.70;;
9370;SDS011;4725;48.384;8.984;2023-08-06T06:10:20;4.80;;;0.90;;
9370;SDS011;4725;48.384;8.984;2023-08-06T06:12:49;0.70;;;0.60;;
9370;SDS011;4725;48.384;8.984;2023-08-06T06:15:16;1.40;;;0.90;;
9370;SDS011;4725;48.384;8.984;2023-08-06T06:17:43;2.00;;;0.70;;
9370;SDS011;4725;48.384;8.984;2023-08-06T06:20:10;2.00;;;0.77;;
9370;SDS011;4725;48.384;8.984;2023-08-06T06:22:37;3.70;;;0.80;;
9370;SDS011;4725;48.384;8.984;2023-08-06T06:25:04;0.73;;;0.70;;
9370;SDS011;4725;48.384;8.984;2023-08-06T06:27:31;1.30;;;0.70;;
9370;SDS011;4725;48.384;8.984;2023-08-06T06:30:00;0.90;;;0.50;;
9370;SDS011;4725;48.384;8.984;2023-08-06T06:32:26;1.43;;;0.80;;
9370;SDS011;4725;48.384;8.984;2023-08-06T06:34:53;1.80;;;0.80;;
9370;SDS011;4725;48.384;8.984;2023-08-06T06:37:20;3.07;;;0.67;;
9370;SDS011;4725;48.384;8.984;2023-08-06T06:39:47;0.77;;;0.60;;
9370;SDS011;4725;48.384;8.984;2023-08-06T06:42:14;0.80;;;0.80;;
9370;SDS011;4725;48.384;8.984;2023-08-06T06:44:41;0.60;;;0.60;;
9370;SDS011;4725;48.384;8.984;2023-08-06T06:47:09;1.10;;;0.60;;
9370;SDS011;4725;48.384;8.984;2023-08-06T06:49:36;0.53;;;0.50;;
9370;SDS011;4725;48.384;8.984;2023-08-06T06:52:03;0.73;;;0.50;;
9370;SDS011;4725;48.384;8.984;2023-08-06T06:54:30;3.57;;;0.50;;
9370;SDS011;4725;48.384;8.984;2023-08-06T06:56:57;0.50;;;0.50;;
9370;SDS011;4725;48.384;8.984;2023-08-06T06:59:24;1.57;;;0.60;;
9370;SDS011;4725;48.384;8.984;2023-08-06T07:01:51;1.33;;;0.50;;
9370;SDS011;4725;48.384;8.984;2023-08-06T07:04:19;2.63;;;0.60;;
9370;SDS011;4725;48.384;8.984;2023-08-06T07:06:46;1.27;;;0.53;;
9370;SDS011;4725;48.384;8.984;2023-08-06T07:09:13;0.40;;;0.40;;
9370;SDS011;4725;48.384;8.984;2023-08-06T07:11:40;1.00;;;0.60;;
9370;SDS011;4725;48.384;8.984;2023-08-06T07:14:08;1.55;;;0.68;;
9370;SDS011;4725;48.384;8.984;2023-08-06T07:16:35;0.63;;;0.63;;
9370;SDS011;4725;48.384;8.984;2023-08-06T07:19:02;2.75;;;0.57;;
9370;SDS011;4725;48.384;8.984;2023-08-06T07:21:31;0.50;;;0.50;;
9370;SDS011;4725;48.384;8.984;2023-08-06T07:23:58;2.87;;;0.50;;
9370;SDS011;4725;48.384;8.984;2023-08-06T07:26:25;0.97;;;0.50;;
9370;SDS011;4725;48.384;8.984;2023-08-06T07:28:52;0.50;;;0.50;;
9370;SDS011;4725;48.384;8.984;2023-08-06T07:31:19;1.45;;;0.47;;
9370;SDS011;4725;48.384;8.984;2023-08-06T07:33:46;2.53;;;0.50;;
9370;SDS011;4725;48.384;8.984;2023-08-06T07:36:13;0.70;;;0.50;;
9370;SDS011;4725;48.384;8.984;2023-08-06T07:38:42;0.40;;;0.40;;
9370;SDS011;4725;48.384;8.984;2023-08-06T07:41:09;0.50;;;0.50;;
9370;SDS011;4725;48.384;8.984;2023-08-06T07:43:36;0.50;;;0.50;;
9370;SDS011;4725;48.384;8.984;2023-08-06T07:46:03;0.43;;;0.43;;
9370;SDS011;4725;48.384;8.984;2023-08-06T07:48:30;0.60;;;0.45;;
9370;SDS011;4725;48.384;8.984;2023-08-06T07:50:57;0.87;;;0.50;;
9370;SDS011;4725;48.384;8.984;2023-08-06T07:53:24;0.73;;;0.43;;
9370;SDS011;4725;48.384;8.984;2023-08-06T07:55:55;0.83;;;0.50;;
9370;SDS011;4725;48.384;8.984;2023-08-06T07:58:23;0.87;;;0.40;;
9370;SDS011;4725;48.384;8.984;2023-08-06T08:00:50;0.30;;;0.30;;
9370;SDS011;4725;48.384;8.984;2023-08-06T08:03:17;0.30;;;0.30;;
9370;SDS011;4725;48.384;8.984;2023-08-06T08:05:44;0.70;;;0.40;;
9370;SDS011;4725;48.384;8.984;2023-08-06T08:08:11;0.57;;;0.30;;
9370;SDS011;4725;48.384;8.984;2023-08-06T08:10:38;0.30;;;0.30;;
9370;SDS011;4725;48.384;8.984;2023-08-06T08:13:06;0.40;;;0.40;;
9370;SDS011;4725;48.384;8.984;2023-08-06T08:15:33;1.07;;;0.50;;
9370;SDS011;4725;48.384;8.984;2023-08-06T08:18:00;0.30;;;0.30;;
9370;SDS011;4725;48.384;8.984;2023-08-06T08:20:27;0.30;;;0.30;;
9370;SDS011;4725;48.384;8.984;2023-08-06T08:22:57;0.30;;;0.30;;
9370;SDS011;4725;48.384;8.984;2023-08-06T08:25:25;0.30;;;0.30;;
9370;SDS011;4725;48.384;8.984;2023-08-06T08:27:52;1.40;;;0.40;;
9370;SDS011;4725;48.384;8.984;2023-08-06T08:30:20;0.60;;;0.60;;
9370;SDS011;4725;48.384;8.984;2023-08-06T08:32:47;0.40;;;0.40;;
9370;SDS011;4725;48.384;8.984;2023-08-06T08:35:14;0.40;;;0.40;;
9370;SDS011;4725;48.384;8.984;2023-08-06T08:37:41;0.40;;;0.40;;
9370;SDS011;4725;48.384;8.984;2023-08-06T08:40:09;0.40;;;0.40;;
9370;SDS011;4725;48.384;8.984;2023-08-06T08:42:36;0.40;;;0.40;;
9370;SDS011;4725;48.384;8.984;2023-08-06T08:45:06;1.30;;;0.40;;
9370;SDS011;4725;48.384;8.984;2023-08-06T08:47:40;0.30;;;0.30;;
9370;SDS011;4725;48.384;8.984;2023-08-06T08:50:08;0.40;;;0.40;;
9370;SDS011;4725;48.384;8.984;2023-08-06T08:52:36;0.73;;;0.40;;
9370;SDS011;4725;48.384;8.984;2023-08-06T08:55:05;0.33;;;0.33;;
9370;SDS011;4725;48.384;8.984;2023-08-06T08:57:34;0.33;;;0.33;;
9370;SDS011;4725;48.384;8.984;2023-08-06T09:00:01;1.90;;;0.40;;
9370;SDS011;4725;48.384;8.984;2023-08-06T09:02:28;0.40;;;0.40;;
9370;SDS011;4725;48.384;8.984;2023-08-06T09:04:59;0.50;;;0.50;;
9370;SDS011;4725;48.384;8.984;2023-08-06T09:07:27;0.30;;;0.30;;
9370;SDS011;4725;48.384;8.984;2023-08-06T09:09:58;0.40;;;0.40;;
9370;SDS011;4725;48.384;8.984;2023-08-06T09:12:30;0.30;;;0.30;;
9370;SDS011;4725;48.384;8.984;2023-08-06T09:14:57;0.60;;;0.43;;
9370;SDS011;4725;48.384;8.984;2023-08-06T09:17:23;2.57;;;0.37;;
9370;SDS011;4725;48.384;8.984;2023-08-06T09:19:50;0.30;;;0.30;;
9370;SDS011;4725;48.384;8.984;2023-08-06T09:22:19;0.30;;;0.30;;
9370;SDS011;4725;48.384;8.984;2023-08-06T09:24:46;0.30;;;0.30;;
9370;SDS011;4725;48.384;8.984;2023-08-06T09:27:13;0.40;;;0.40;;
9370;SDS011;4725;48.384;8.984;2023-08-06T09:29:41;0.40;;;0.40;;
9370;SDS011;4725;48.384;8.984;2023-08-06T09:32:09;0.30;;;0.30;;
9370;SDS011;4725;48.384;8.984;2023-08-06T09:34:38;0.30;;;0.30;;
9370;SDS011;4725;48.384;8.984;2023-08-06T09:37:05;0.37;;;0.37;;
9370;SDS011;4725;48.384;8.984;2023-08-06T09:39:35;1.03;;;0.43;;
9370;SDS011;4725;48.384;8.984;2023-08-06T09:42:04;0.30;;;0.30;;
9370;SDS011;4725;48.384;8.984;2023-08-06T09:44:31;3.40;;;0.50;;
9370;SDS011;4725;48.384;8.984;2023-08-06T09:46:59;0.60;;;0.30;;
9370;SDS011;4725;48.384;8.984;2023-08-06T09:49:27;1.67;;;0.30;;
9370;SDS011;4725;48.384;8.984;2023-08-06T09:52:05;0.40;;;0.40;;
9370;SDS011;4725;48.384;8.984;2023-08-06T09:54:35;0.30;;;0.30;;
9370;SDS011;4725;48.384;8.984;2023-08-06T09:57:03;0.37;;;0.37;;
9370;SDS011;4725;48.384;8.984;2023-08-06T09:59:31;0.30;;;0.30;;
9370;SDS011;4725;48.384;8.984;2023-08-06T10:01:59;0.30;;;0.30;;
9370;SDS011;4725;48.384;8.984;2023-08-06T10:04:26;0.30;;;0.30;;
9370;SDS011;4725;48.384;8.984;2023-08-06T10:06:55;0.30;;;0.30;;
9370;SDS011;4725;48.384;8.984;2023-08-06T10:09:24;0.50;;;0.50;;
9370;SDS011;4725;48.384;8.984;2023-08-06T10:11:52;0.30;;;0.30;;
9370;SDS011;4725;48.384;8.984;2023-08-06T10:14:20;0.30;;;0.30;;
9370;SDS011;4725;48.384;8.984;2023-08-06T10:16:51;0.30;;;0.30;;
9370;SDS011;4725;48.384;8.984;2023-08-06T10:19:18;0.30;;;0.30;;
9370;SDS011;4725;48.384;8.984;2023-08-06T10:24:48;0.63;;;0.40;;
9370;SDS011;4725;48.384;8.984;2023-08-06T10:27:20;0.97;;;0.50;;
9370;SDS011;4725;48.384;8.984;2023-08-06T10:29:48;2.10;;;0.43;;
9370;SDS011;4725;48.384;8.984;2023-08-06T10:32:15;1.23;;;0.30;;
9370;SDS011;4725;48.384;8.984;2023-08-06T10:34:55;0.30;;;0.30;;
9370;SDS011;4725;48.384;8.984;2023-08-06T10:37:34;0.40;;;0.40;;
9370;SDS011;4725;48.384;8.984;2023-08-06T10:40:01;0.53;;;0.40;;
9370;SDS011;4725;48.384;8.984;2023-08-06T10:42:30;0.30;;;0.30;;
9370;SDS011;4725;48.384;8.984;2023-08-06T10:45:16;0.30;;;0.30;;
9370;SDS011;4725;48.384;8.984;2023-08-06T10:47:45;0.40;;;0.40;;
9370;SDS011;4725;48.384;8.984;2023-08-06T10:50:12;1.80;;;0.47;;
9370;SDS011;4725;48.384;8.984;2023-08-06T10:52:41;0.30;;;0.30;;
9370;SDS011;4725;48.384;8.984;2023-08-06T10:55:08;0.60;;;0.60;;
9370;SDS011;4725;48.384;8.984;2023-08-06T10:57:37;0.30;;;0.30;;
9370;SDS011;4725;48.384;8.984;2023-08-06T11:00:04;2.03;;;0.70;;
9370;SDS011;4725;48.384;8.984;2023-08-06T11:02:33;0.30;;;0.30;;
9370;SDS011;4725;48.384;8.984;2023-08-06T11:05:04;0.33;;;0.33;;
9370;SDS011;4725;48.384;8.984;2023-08-06T11:07:32;0.20;;;0.20;;
9370;SDS011;4725;48.384;8.984;2023-08-06T11:10:03;0.30;;;0.30;;
9370;SDS011;4725;48.384;8.984;2023-08-06T11:12:30;0.40;;;0.40;;
9370;SDS011;4725;48.384;8.984;2023-08-06T11:14:58;0.57;;;0.47;;
9370;SDS011;4725;48.384;8.984;2023-08-06T11:17:26;0.30;;;0.30;;
9370;SDS011;4725;48.384;8.984;2023-08-06T11:19:54;1.40;;;0.30;;
9370;SDS011;4725;48.384;8.984;2023-08-06T11:22:21;0.40;;;0.40;;
9370;SDS011;4725;48.384;8.984;2023-08-06T11:24:48;0.30;;;0.30;;
9370;SDS011;4725;48.384;8.984;2023-08-06T11:27:16;0.40;;;0.40;;
9370;SDS011;4725;48.384;8.984;2023-08-06T11:29:43;0.30;;;0.30;;
9370;SDS011;4725;48.384;8.984;2023-08-06T11:32:12;0.30;;;0.30;;
9370;SDS011;4725;48.384;8.984;2023-08-06T11:34:39;5.07;;;0.47;;
9370;SDS011;4725;48.384;8.984;2023-08-06T11:37:06;0.50;;;0.50;;
9370;SDS011;4725;48.384;8.984;2023-08-06T11:39:33;0.23;;;0.23;;
9370;SDS011;4725;48.384;8.984;2023-08-06T11:42:02;0.30;;;0.30;;
9370;SDS011;4725;48.384;8.984;2023-08-06T11:44:30;0.30;;;0.30;;
9370;SDS011;4725;48.384;8.984;2023-08-06T11:46:58;0.20;;;0.20;;
9370;SDS011;4725;48.384;8.984;2023-08-06T11:49:44;0.30;;;0.30;;
9370;SDS011;4725;48.384;8.984;2023-08-06T11:52:15;0.20;;;0.20;;
9370;SDS011;4725;48.384;8.984;2023-08-06T11:54:44;0.20;;;0.20;;
9370;SDS011;4725;48.384;8.984;2023-08-06T11:57:12;0.23;;;0.23;;
9370;SDS011;4725;48.384;8.984;2023-08-06T11:59:39;0.20;;;0.20;;
9370;SDS011;4725;48.384;8.984;2023-08-06T12:02:08;0.20;;;0.20;;
9370;SDS011;4725;48.384;8.984;2023-08-06T12:04:59;0.20;;;0.20;;
9370;SDS011;4725;48.384;8.984;2023-08-06T12:07:28;0.30;;;0.30;;
9370;SDS011;4725;48.384;8.984;2023-08-06T12:09:55;0.20;;;0.20;;
9370;SDS011;4725;48.384;8.984;2023-08-06T12:12:22;0.20;;;0.20;;
9370;SDS011;4725;48.384;8.984;2023-08-06T12:14:49;0.20;;;0.20;;
9370;SDS011;4725;48.384;8.984;2023-08-06T12:17:16;0.20;;;0.20;;
9370;SDS011;4725;48.384;8.984;2023-08-06T12:19:44;0.20;;;0.20;;
9370;SDS011;4725;48.384;8.984;2023-08-06T12:22:12;0.30;;;0.30;;
9370;SDS011;4725;48.384;8.984;2023-08-06T12:24:40;0.30;;;0.30;;
9370;SDS011;4725;48.384;8.984;2023-08-06T12:27:07;0.30;;;0.30;;
9370;SDS011;4725;48.384;8.984;2023-08-06T12:29:34;0.30;;;0.30;;
9370;SDS011;4725;48.384;8.984;2023-08-06T12:32:01;0.30;;;0.30;;
9370;SDS011;4725;48.384;8.984;2023-08-06T12:34:28;0.30;;;0.30;;
9370;SDS011;4725;48.384;8.984;2023-08-06T12:36:55;0.30;;;0.30;;
9370;SDS011;4725;48.384;8.984;2023-08-06T12:39:23;0.30;;;0.30;;
9370;SDS011;4725;48.384;8.984;2023-08-06T12:41:53;0.20;;;0.20;;
9370;SDS011;4725;48.384;8.984;2023-08-06T12:44:20;0.20;;;0.20;;
9370;SDS011;4725;48.384;8.984;2023-08-06T12:46:47;0.20;;;0.20;;
9370;SDS011;4725;48.384;8.984;2023-08-06T12:49:14;0.27;;;0.27;;
9370;SDS011;4725;48.384;8.984;2023-08-06T12:51:41;0.20;;;0.20;;
9370;SDS011;4725;48.384;8.984;2023-08-06T12:54:08;0.23;;;0.23;;
9370;SDS011;4725;48.384;8.984;2023-08-06T12:56:36;0.23;;;0.23;;
9370;SDS011;4725;48.384;8.984;2023-08-06T12:59:03;0.30;;;0.30;;
9370;SDS011;4725;48.384;8.984;2023-08-06T13:01:30;0.30;;;0.30;;
9370;SDS011;4725;48.384;8.984;2023-08-06T13:03:57;0.30;;;0.30;;
9370;SDS011;4725;48.384;8.984;2023-08-06T13:06:24;0.20;;;0.20;;
9370;SDS011;4725;48.384;8.984;2023-08-06T13:08:51;0.20;;;0.20;;
9370;SDS011;4725;48.384;8.984;2023-08-06T13:11:18;0.20;;;0.20;;
9370;SDS011;4725;48.384;8.984;2023-08-06T13:13:46;0.20;;;0.20;;
9370;SDS011;4725;48.384;8.984;2023-08-06T13:16:13;0.30;;;0.30;;
9370;SDS011;4725;48.384;8.984;2023-08-06T13:18:40;0.30;;;0.30;;
9370;SDS011;4725;48.384;8.984;2023-08-06T13:21:07;0.30;;;0.30;;
9370;SDS011;4725;48.384;8.984;2023-08-06T13:23:34;0.30;;;0.30;;
9370;SDS011;4725;48.384;8.984;2023-08-06T13:26:01;0.30;;;0.30;;
9370;SDS011;4725;48.384;8.984;2023-08-06T13:28:27;0.30;;;0.30;;
9370;SDS011;4725;48.384;8.984;2023-08-06T13:30:56;0.30;;;0.30;;
9370;SDS011;4725;48.384;8.984;2023-08-06T13:33:23;0.30;;;0.30;;
9370;SDS011;4725;48.384;8.984;2023-08-06T13:35:51;0.30;;;0.30;;
9370;SDS011;4725;48.384;8.984;2023-08-06T13:38:18;0.30;;;0.30;;
9370;SDS011;4725;48.384;8.984;2023-08-06T13:40:45;0.30;;;0.30;;
9370;SDS011;4725;48.384;8.984;2023-08-06T13:43:12;0.30;;;0.30;;
9370;SDS011;4725;48.384;8.984;2023-08-06T13:45:41;0.30;;;0.30;;
9370;SDS011;4725;48.384;8.984;2023-08-06T13:48:09;0.30;;;0.30;;
9370;SDS011;4725;48.384;8.984;2023-08-06T13:50:36;0.30;;;0.30;;
9370;SDS011;4725;48.384;8.984;2023-08-06T13:53:03;0.30;;;0.30;;
9370;SDS011;4725;48.384;8.984;2023-08-06T13:55:30;0.30;;;0.30;;
9370;SDS011;4725;48.384;8.984;2023-08-06T13:57:57;0.30;;;0.30;;
9370;SDS011;4725;48.384;8.984;2023-08-06T14:00:23;0.40;;;0.40;;
9370;SDS011;4725;48.384;8.984;2023-08-06T14:02:50;0.40;;;0.40;;
9370;SDS011;4725;48.384;8.984;2023-08-06T14:05:19;0.50;;;0.50;;
9370;SDS011;4725;48.384;8.984;2023-08-06T14:07:45;0.60;;;0.60;;
9370;SDS011;4725;48.384;8.984;2023-08-06T14:10:12;0.43;;;0.43;;
9370;SDS011;4725;48.384;8.984;2023-08-06T14:12:39;0.50;;;0.50;;
9370;SDS011;4725;48.384;8.984;2023-08-06T14:15:07;0.70;;;0.70;;
9370;SDS011;4725;48.384;8.984;2023-08-06T14:17:34;0.60;;;0.60;;
9370;SDS011;4725;48.384;8.984;2023-08-06T14:20:01;0.60;;;0.60;;
9370;SDS011;4725;48.384;8.984;2023-08-06T14:22:30;1.08;;;0.60;;
9370;SDS011;4725;48.384;8.984;2023-08-06T14:24:57;2.33;;;0.45;;
9370;SDS011;4725;48.384;8.984;2023-08-06T14:27:23;0.82;;;0.70;;
9370;SDS011;4725;48.384;8.984;2023-08-06T14:29:51;0.65;;;0.57;;
9370;SDS011;4725;48.384;8.984;2023-08-06T14:32:17;0.90;;;0.70;;
9370;SDS011;4725;48.384;8.984;2023-08-06T14:34:44;1.35;;;0.57;;
9370;SDS011;4725;48.384;8.984;2023-08-06T14:37:11;1.27;;;0.50;;
9370;SDS011;4725;48.384;8.984;2023-08-06T14:39:40;1.17;;;0.82;;
9370;SDS011;4725;48.384;8.984;2023-08-06T14:42:07;0.73;;;0.65;;
9370;SDS011;4725;48.384;8.984;2023-08-06T14:44:34;0.82;;;0.73;;
9370;SDS011;4725;48.384;8.984;2023-08-06T14:47:01;0.73;;;0.73;;
9370;SDS011;4725;48.384;8.984;2023-08-06T14:49:27;0.73;;;0.70;;
9370;SDS011;4725;48.384;8.984;2023-08-06T14:51:54;0.67;;;0.67;;
9370;SDS011;4725;48.384;8.984;2023-08-06T14:54:24;0.60;;;0.60;;
9370;SDS011;4725;48.384;8.984;2023-08-06T14:56:52;0.60;;;0.60;;
9370;SDS011;4725;48.384;8.984;2023-08-06T14:59:19;0.60;;;0.50;;
9370;SDS011;4725;48.384;8.984;2023-08-06T15:01:46;0.40;;;0.40;;
9370;SDS011;4725;48.384;8.984;2023-08-06T15:04:13;0.50;;;0.50;;
9370;SDS011;4725;48.384;8.984;2023-08-06T15:06:39;0.60;;;0.60;;
9370;SDS011;4725;48.384;8.984;2023-08-06T15:09:07;2.35;;;0.60;;
9370;SDS011;4725;48.384;8.984;2023-08-06T15:11:34;0.50;;;0.50;;
9370;SDS011;4725;48.384;8.984;2023-08-06T15:14:02;3.03;;;0.70;;
9370;SDS011;4725;48.384;8.984;2023-08-06T15:16:32;0.65;;;0.60;;
9370;SDS011;4725;48.384;8.984;2023-08-06T15:18:59;0.60;;;0.60;;
9370;SDS011;4725;48.384;8.984;2023-08-06T15:21:26;0.85;;;0.80;;